sensor_id;sensor_type;location;lat;lon;timestamp;P1;durP1;ratioP1;P2;durP2;ratioP2
4601;SDS011;2313;48.552;9.370;2022-12-20T00:00:02;36.13;;;20.50;;
4601;SDS011;2313;48.552;9.370;2022-12-20T00:02:29;37.92;;;19.88;;
4601;SDS011;2313;48.552;9.370;2022-12-20T00:04:54;39.67;;;19.87;;
4601;SDS011;2313;48.552;9.370;2022-12-20T00:07:20;56.00;;;25.00;;
4601;SDS011;2313;48.552;9.370;2022-12-20T00:09:45;44.70;;;20.13;;
4601;SDS011;2313;48.552;9.370;2022-12-20T00:12:11;27.50;;;15.67;;
4601;SDS011;2313;48.552;9.370;2022-12-20T00:14:37;32.73;;;16.70;;
4601;SDS011;2313;48.552;9.370;2022-12-20T00:17:02;29.00;;;15.50;;
4601;SDS011;2313;48.552;9.370;2022-12-20T00:19:28;27.07;;;15.40;;
4601;SDS011;2313;48.552;9.370;2022-12-20T00:21:53;25.77;;;14.83;;
4601;SDS011;2313;48.552;9.370;2022-12-20T00:24:19;29.93;;;16.50;;
4601;SDS011;2313;48.552;9.370;2022-12-20T00:26:44;37.33;;;19.07;;
4601;SDS011;2313;48.552;9.370;2022-12-20T00:29:10;37.90;;;19.80;;
4601;SDS011;2313;48.552;9.370;2022-12-20T00:31:36;33.33;;;17.40;;
4601;SDS011;2313;48.552;9.370;2022-12-20T00:34:01;27.70;;;17.03;;
4601;SDS011;2313;48.552;9.370;2022-12-20T00:36:28;27.43;;;18.33;;
4601;SDS011;2313;48.552;9.370;2022-12-20T00:38:56;35.75;;;18.77;;
4601;SDS011;2313;48.552;9.370;2022-12-20T00:41:23;28.00;;;17.35;;
4601;SDS011;2313;48.552;9.370;2022-12-20T00:43:50;25.95;;;15.38;;
4601;SDS011;2313;48.552;9.370;2022-12-20T00:46:16;29.38;;;16.52;;
4601;SDS011;2313;48.552;9.370;2022-12-20T00:48:43;27.42;;;16.67;;
4601;SDS011;2313;48.552;9.370;2022-12-20T00:51:10;25.63;;;15.97;;
4601;SDS011;2313;48.552;9.370;2022-12-20T00:53:38;29.63;;;16.25;;
4601;SDS011;2313;48.552;9.370;2022-12-20T00:56:05;33.90;;;17.48;;
4601;SDS011;2313;48.552;9.370;2022-12-20T00:58:32;19.95;;;12.35;;
4601;SDS011;2313;48.552;9.370;2022-12-20T01:00:59;26.25;;;14.43;;
4601;SDS011;2313;48.552;9.370;2022-12-20T01:03:25;23.70;;;12.23;;
4601;SDS011;2313;48.552;9.370;2022-12-20T01:05:55;20.02;;;12.77;;
4601;SDS011;2313;48.552;9.370;2022-12-20T01:08:22;25.17;;;15.35;;
4601;SDS011;2313;48.552;9.370;2022-12-20T01:13:38;31.60;;;17.20;;
4601;SDS011;2313;48.552;9.370;2022-12-20T01:16:13;24.63;;;14.82;;
4601;SDS011;2313;48.552;9.370;2022-12-20T01:18:43;27.30;;;16.65;;
4601;SDS011;2313;48.552;9.370;2022-12-20T01:21:10;30.55;;;15.38;;
4601;SDS011;2313;48.552;9.370;2022-12-20T01:23:38;27.17;;;15.27;;
4601;SDS011;2313;48.552;9.370;2022-12-20T01:26:05;23.02;;;13.98;;
4601;SDS011;2313;48.552;9.370;2022-12-20T01:28:35;26.17;;;15.15;;
4601;SDS011;2313;48.552;9.370;2022-12-20T01:31:05;27.33;;;14.82;;
4601;SDS011;2313;48.552;9.370;2022-12-20T01:33:31;23.93;;;15.20;;
4601;SDS011;2313;48.552;9.370;2022-12-20T01:36:00;27.97;;;15.80;;
4601;SDS011;2313;48.552;9.370;2022-12-20T01:38:28;26.45;;;15.55;;
4601;SDS011;2313;48.552;9.370;2022-12-20T01:40:54;22.97;;;14.23;;
4601;SDS011;2313;48.552;9.370;2022-12-20T01:43:24;25.70;;;15.40;;
4601;SDS011;2313;48.552;9.370;2022-12-20T01:46:08;24.00;;;15.38;;
4601;SDS011;2313;48.552;9.370;2022-12-20T01:48:34;29.63;;;15.80;;
4601;SDS011;2313;48.552;9.370;2022-12-20T01:51:00;28.10;;;15.47;;
4601;SDS011;2313;48.552;9.370;2022-12-20T01:53:26;27.33;;;15.50;;
4601;SDS011;2313;48.552;9.370;2022-12-20T01:55:51;28.27;;;15.97;;
4601;SDS011;2313;48.552;9.370;2022-12-20T01:58:19;24.88;;;15.52;;
4601;SDS011;2313;48.552;9.370;2022-12-20T02:00:46;22.27;;;13.63;;
4601;SDS011;2313;48.552;9.370;2022-12-20T02:03:13;24.02;;;15.65;;
4601;SDS011;2313;48.552;9.370;2022-12-20T02:05:41;27.35;;;15.50;;
4601;SDS011;2313;48.552;9.370;2022-12-20T02:08:12;22.05;;;13.57;;
4601;SDS011;2313;48.552;9.370;2022-12-20T02:14:06;8.33;;;4.93;;
4601;SDS011;2313;48.552;9.370;2022-12-20T02:16:42;6.90;;;5.03;;
4601;SDS011;2313;48.552;9.370;2022-12-20T02:19:22;2.57;;;2.37;;
4601;SDS011;2313;48.552;9.370;2022-12-20T02:22:25;2.40;;;2.20;;
4601;SDS011;2313;48.552;9.370;2022-12-20T02:30:57;3.53;;;2.40;;
4601;SDS011;2313;48.552;9.370;2022-12-20T02:33:25;1.90;;;1.80;;
4601;SDS011;2313;48.552;9.370;2022-12-20T02:35:52;2.53;;;2.33;;
4601;SDS011;2313;48.552;9.370;2022-12-20T02:38:26;3.87;;;2.60;;
4601;SDS011;2313;48.552;9.370;2022-12-20T02:40:53;8.60;;;2.33;;
4601;SDS011;2313;48.552;9.370;2022-12-20T02:43:25;2.83;;;2.40;;
4601;SDS011;2313;48.552;9.370;2022-12-20T02:46:15;3.90;;;2.70;;
4601;SDS011;2313;48.552;9.370;2022-12-20T02:48:44;3.30;;;2.33;;
4601;SDS011;2313;48.552;9.370;2022-12-20T02:51:12;8.20;;;2.57;;
4601;SDS011;2313;48.552;9.370;2022-12-20T02:53:39;3.83;;;2.63;;
4601;SDS011;2313;48.552;9.370;2022-12-20T02:56:10;3.93;;;2.63;;
4601;SDS011;2313;48.552;9.370;2022-12-20T02:58:53;3.00;;;2.20;;
4601;SDS011;2313;48.552;9.370;2022-12-20T03:01:29;3.60;;;2.70;;
4601;SDS011;2313;48.552;9.370;2022-12-20T03:03:58;3.43;;;2.20;;
4601;SDS011;2313;48.552;9.370;2022-12-20T03:06:24;2.60;;;1.63;;
4601;SDS011;2313;48.552;9.370;2022-12-20T03:08:50;4.67;;;2.20;;
4601;SDS011;2313;48.552;9.370;2022-12-20T03:11:15;11.17;;;7.50;;
4601;SDS011;2313;48.552;9.370;2022-12-20T03:13:41;21.73;;;13.27;;
4601;SDS011;2313;48.552;9.370;2022-12-20T03:16:07;22.60;;;14.27;;
4601;SDS011;2313;48.552;9.370;2022-12-20T03:18:34;21.07;;;13.13;;
4601;SDS011;2313;48.552;9.370;2022-12-20T03:21:00;27.50;;;15.90;;
4601;SDS011;2313;48.552;9.370;2022-12-20T03:23:26;25.93;;;16.90;;
4601;SDS011;2313;48.552;9.370;2022-12-20T03:25:51;19.10;;;12.90;;
4601;SDS011;2313;48.552;9.370;2022-12-20T03:28:17;16.50;;;11.27;;
4601;SDS011;2313;48.552;9.370;2022-12-20T03:30:43;15.00;;;10.03;;
4601;SDS011;2313;48.552;9.370;2022-12-20T03:33:10;2.20;;;1.93;;
4601;SDS011;2313;48.552;9.370;2022-12-20T03:35:35;4.20;;;3.27;;
4601;SDS011;2313;48.552;9.370;2022-12-20T03:38:01;3.23;;;1.70;;
4601;SDS011;2313;48.552;9.370;2022-12-20T03:40:26;5.60;;;1.77;;
4601;SDS011;2313;48.552;9.370;2022-12-20T03:42:52;2.47;;;1.87;;
4601;SDS011;2313;48.552;9.370;2022-12-20T03:45:17;6.30;;;1.87;;
4601;SDS011;2313;48.552;9.370;2022-12-20T03:47:43;4.00;;;2.30;;
4601;SDS011;2313;48.552;9.370;2022-12-20T03:50:09;3.27;;;2.17;;
4601;SDS011;2313;48.552;9.370;2022-12-20T03:52:36;1.67;;;1.53;;
4601;SDS011;2313;48.552;9.370;2022-12-20T03:55:02;2.23;;;1.70;;
4601;SDS011;2313;48.552;9.370;2022-12-20T03:57:28;3.30;;;2.30;;
4601;SDS011;2313;48.552;9.370;2022-12-20T03:59:54;4.00;;;2.00;;
4601;SDS011;2313;48.552;9.370;2022-12-20T04:02:19;3.40;;;2.17;;
4601;SDS011;2313;48.552;9.370;2022-12-20T04:04:46;2.23;;;1.83;;
4601;SDS011;2313;48.552;9.370;2022-12-20T04:07:12;2.07;;;1.53;;
4601;SDS011;2313;48.552;9.370;2022-12-20T04:09:38;3.60;;;2.67;;
4601;SDS011;2313;48.552;9.370;2022-12-20T04:12:03;2.50;;;1.83;;
4601;SDS011;2313;48.552;9.370;2022-12-20T04:14:29;1.50;;;1.40;;
4601;SDS011;2313;48.552;9.370;2022-12-20T04:16:55;6.50;;;4.30;;
4601;SDS011;2313;48.552;9.370;2022-12-20T04:19:21;12.67;;;8.90;;
4601;SDS011;2313;48.552;9.370;2022-12-20T04:21:47;18.17;;;12.93;;
4601;SDS011;2313;48.552;9.370;2022-12-20T04:24:12;19.97;;;13.10;;
4601;SDS011;2313;48.552;9.370;2022-12-20T04:26:38;22.60;;;13.10;;
4601;SDS011;2313;48.552;9.370;2022-12-20T04:29:03;9.67;;;7.10;;
4601;SDS011;2313;48.552;9.370;2022-12-20T04:31:29;19.00;;;11.87;;
4601;SDS011;2313;48.552;9.370;2022-12-20T04:33:55;24.30;;;14.53;;
4601;SDS011;2313;48.552;9.370;2022-12-20T04:36:21;20.10;;;12.80;;
4601;SDS011;2313;48.552;9.370;2022-12-20T04:38:46;4.97;;;3.70;;
4601;SDS011;2313;48.552;9.370;2022-12-20T04:41:12;2.73;;;1.77;;
4601;SDS011;2313;48.552;9.370;2022-12-20T04:43:47;1.90;;;1.43;;
4601;SDS011;2313;48.552;9.370;2022-12-20T04:46:13;2.90;;;2.20;;
4601;SDS011;2313;48.552;9.370;2022-12-20T04:48:39;5.17;;;1.80;;
4601;SDS011;2313;48.552;9.370;2022-12-20T04:51:05;2.30;;;2.00;;
4601;SDS011;2313;48.552;9.370;2022-12-20T04:53:30;5.37;;;1.93;;
4601;SDS011;2313;48.552;9.370;2022-12-20T04:56:24;1.97;;;1.87;;
4601;SDS011;2313;48.552;9.370;2022-12-20T04:58:52;2.23;;;2.00;;
4601;SDS011;2313;48.552;9.370;2022-12-20T05:01:20;2.40;;;2.20;;
4601;SDS011;2313;48.552;9.370;2022-12-20T05:03:46;2.63;;;2.40;;
4601;SDS011;2313;48.552;9.370;2022-12-20T05:06:13;4.03;;;2.50;;
4601;SDS011;2313;48.552;9.370;2022-12-20T05:08:39;6.67;;;5.00;;
4601;SDS011;2313;48.552;9.370;2022-12-20T05:11:05;6.60;;;3.70;;
4601;SDS011;2313;48.552;9.370;2022-12-20T05:13:30;2.63;;;2.10;;
4601;SDS011;2313;48.552;9.370;2022-12-20T05:15:56;5.13;;;4.20;;
4601;SDS011;2313;48.552;9.370;2022-12-20T05:18:23;15.00;;;10.73;;
4601;SDS011;2313;48.552;9.370;2022-12-20T05:20:50;7.23;;;5.50;;
4601;SDS011;2313;48.552;9.370;2022-12-20T05:23:38;17.73;;;10.97;;
4601;SDS011;2313;48.552;9.370;2022-12-20T05:26:22;18.00;;;12.40;;
4601;SDS011;2313;48.552;9.370;2022-12-20T05:28:49;20.17;;;13.00;;
4601;SDS011;2313;48.552;9.370;2022-12-20T05:31:14;19.43;;;13.37;;
4601;SDS011;2313;48.552;9.370;2022-12-20T05:33:40;21.03;;;12.80;;
4601;SDS011;2313;48.552;9.370;2022-12-20T05:36:05;18.47;;;12.50;;
4601;SDS011;2313;48.552;9.370;2022-12-20T05:38:31;6.73;;;3.70;;
4601;SDS011;2313;48.552;9.370;2022-12-20T05:40:57;3.27;;;2.37;;
4601;SDS011;2313;48.552;9.370;2022-12-20T05:43:22;2.73;;;1.80;;
4601;SDS011;2313;48.552;9.370;2022-12-20T05:45:50;4.37;;;3.10;;
4601;SDS011;2313;48.552;9.370;2022-12-20T05:48:17;3.43;;;3.13;;
4601;SDS011;2313;48.552;9.370;2022-12-20T05:50:44;2.53;;;2.33;;
4601;SDS011;2313;48.552;9.370;2022-12-20T05:53:14;3.27;;;2.57;;
4601;SDS011;2313;48.552;9.370;2022-12-20T05:55:44;7.07;;;2.40;;
4601;SDS011;2313;48.552;9.370;2022-12-20T05:58:14;3.37;;;2.60;;
4601;SDS011;2313;48.552;9.370;2022-12-20T06:00:41;2.90;;;2.17;;
4601;SDS011;2313;48.552;9.370;2022-12-20T06:03:07;3.23;;;2.53;;
4601;SDS011;2313;48.552;9.370;2022-12-20T06:05:35;3.13;;;2.33;;
4601;SDS011;2313;48.552;9.370;2022-12-20T06:08:02;3.63;;;2.37;;
4601;SDS011;2313;48.552;9.370;2022-12-20T06:10:29;3.60;;;2.70;;
4601;SDS011;2313;48.552;9.370;2022-12-20T06:12:55;4.10;;;2.70;;
4601;SDS011;2313;48.552;9.370;2022-12-20T06:15:20;9.13;;;3.27;;
4601;SDS011;2313;48.552;9.370;2022-12-20T06:17:46;4.30;;;3.40;;
4601;SDS011;2313;48.552;9.370;2022-12-20T06:20:11;5.07;;;3.10;;
4601;SDS011;2313;48.552;9.370;2022-12-20T06:22:37;3.50;;;3.20;;
4601;SDS011;2313;48.552;9.370;2022-12-20T06:25:03;4.00;;;2.70;;
4601;SDS011;2313;48.552;9.370;2022-12-20T06:27:29;4.40;;;3.50;;
4601;SDS011;2313;48.552;9.370;2022-12-20T06:29:55;6.67;;;3.57;;
4601;SDS011;2313;48.552;9.370;2022-12-20T06:32:20;4.27;;;3.00;;
4601;SDS011;2313;48.552;9.370;2022-12-20T06:34:46;5.93;;;3.17;;
4601;SDS011;2313;48.552;9.370;2022-12-20T06:37:12;5.57;;;3.33;;
4601;SDS011;2313;48.552;9.370;2022-12-20T06:39:37;4.50;;;3.33;;
4601;SDS011;2313;48.552;9.370;2022-12-20T06:42:03;3.57;;;2.90;;
4601;SDS011;2313;48.552;9.370;2022-12-20T06:44:29;3.13;;;2.83;;
4601;SDS011;2313;48.552;9.370;2022-12-20T06:46:54;5.70;;;2.90;;
4601;SDS011;2313;48.552;9.370;2022-12-20T06:49:20;4.47;;;3.30;;
4601;SDS011;2313;48.552;9.370;2022-12-20T06:51:46;4.27;;;3.20;;
4601;SDS011;2313;48.552;9.370;2022-12-20T06:54:12;4.73;;;2.80;;
4601;SDS011;2313;48.552;9.370;2022-12-20T06:56:38;4.37;;;2.83;;
4601;SDS011;2313;48.552;9.370;2022-12-20T06:59:03;3.83;;;2.97;;
4601;SDS011;2313;48.552;9.370;2022-12-20T07:01:29;5.97;;;2.87;;
4601;SDS011;2313;48.552;9.370;2022-12-20T07:03:55;5.33;;;3.07;;
4601;SDS011;2313;48.552;9.370;2022-12-20T07:06:21;5.63;;;3.10;;
4601;SDS011;2313;48.552;9.370;2022-12-20T07:08:47;8.03;;;3.20;;
4601;SDS011;2313;48.552;9.370;2022-12-20T07:11:12;8.70;;;3.70;;
4601;SDS011;2313;48.552;9.370;2022-12-20T07:13:38;6.33;;;2.73;;
4601;SDS011;2313;48.552;9.370;2022-12-20T07:16:04;6.17;;;3.30;;
4601;SDS011;2313;48.552;9.370;2022-12-20T07:18:30;4.87;;;2.80;;
4601;SDS011;2313;48.552;9.370;2022-12-20T07:21:00;7.47;;;3.53;;
4601;SDS011;2313;48.552;9.370;2022-12-20T07:23:26;18.40;;;11.70;;
4601;SDS011;2313;48.552;9.370;2022-12-20T07:25:53;18.10;;;11.57;;
4601;SDS011;2313;48.552;9.370;2022-12-20T07:28:19;14.93;;;11.70;;
4601;SDS011;2313;48.552;9.370;2022-12-20T07:30:45;19.33;;;13.10;;
4601;SDS011;2313;48.552;9.370;2022-12-20T07:33:11;15.50;;;11.97;;
4601;SDS011;2313;48.552;9.370;2022-12-20T07:35:36;23.60;;;13.50;;
4601;SDS011;2313;48.552;9.370;2022-12-20T07:38:02;18.77;;;12.50;;
4601;SDS011;2313;48.552;9.370;2022-12-20T07:40:28;18.63;;;12.10;;
4601;SDS011;2313;48.552;9.370;2022-12-20T07:42:53;23.17;;;11.93;;
4601;SDS011;2313;48.552;9.370;2022-12-20T07:45:19;8.80;;;6.50;;
4601;SDS011;2313;48.552;9.370;2022-12-20T07:47:44;10.00;;;3.90;;
4601;SDS011;2313;48.552;9.370;2022-12-20T07:50:10;25.70;;;14.30;;
4601;SDS011;2313;48.552;9.370;2022-12-20T07:52:36;28.63;;;18.90;;
4601;SDS011;2313;48.552;9.370;2022-12-20T07:55:03;36.00;;;18.37;;
4601;SDS011;2313;48.552;9.370;2022-12-20T07:57:38;17.83;;;12.30;;
4601;SDS011;2313;48.552;9.370;2022-12-20T08:00:13;13.00;;;7.20;;
4601;SDS011;2313;48.552;9.370;2022-12-20T08:02:51;24.20;;;16.10;;
4601;SDS011;2313;48.552;9.370;2022-12-20T08:05:23;22.80;;;13.83;;
4601;SDS011;2313;48.552;9.370;2022-12-20T08:07:50;22.10;;;12.63;;
4601;SDS011;2313;48.552;9.370;2022-12-20T08:10:17;22.27;;;13.67;;
4601;SDS011;2313;48.552;9.370;2022-12-20T08:12:43;19.33;;;12.50;;
4601;SDS011;2313;48.552;9.370;2022-12-20T08:15:11;24.80;;;14.07;;
4601;SDS011;2313;48.552;9.370;2022-12-20T08:17:37;17.13;;;11.77;;
4601;SDS011;2313;48.552;9.370;2022-12-20T08:20:02;16.33;;;11.33;;
4601;SDS011;2313;48.552;9.370;2022-12-20T08:22:29;14.60;;;10.20;;
4601;SDS011;2313;48.552;9.370;2022-12-20T08:24:55;12.13;;;9.23;;
4601;SDS011;2313;48.552;9.370;2022-12-20T08:27:21;22.03;;;10.60;;
4601;SDS011;2313;48.552;9.370;2022-12-20T08:29:46;11.90;;;9.30;;
4601;SDS011;2313;48.552;9.370;2022-12-20T08:32:12;13.67;;;9.20;;
4601;SDS011;2313;48.552;9.370;2022-12-20T08:34:38;14.23;;;9.53;;
4601;SDS011;2313;48.552;9.370;2022-12-20T08:37:04;14.40;;;9.97;;
4601;SDS011;2313;48.552;9.370;2022-12-20T08:39:29;16.70;;;10.60;;
4601;SDS011;2313;48.552;9.370;2022-12-20T08:41:55;18.50;;;11.20;;
4601;SDS011;2313;48.552;9.370;2022-12-20T08:44:21;15.67;;;10.13;;
4601;SDS011;2313;48.552;9.370;2022-12-20T08:46:46;5.40;;;3.87;;
4601;SDS011;2313;48.552;9.370;2022-12-20T08:49:12;3.30;;;2.70;;
4601;SDS011;2313;48.552;9.370;2022-12-20T08:51:38;3.70;;;3.10;;
4601;SDS011;2313;48.552;9.370;2022-12-20T08:54:03;7.07;;;2.83;;
4601;SDS011;2313;48.552;9.370;2022-12-20T08:56:29;3.23;;;2.97;;
4601;SDS011;2313;48.552;9.370;2022-12-20T08:58:54;3.33;;;2.37;;
4601;SDS011;2313;48.552;9.370;2022-12-20T09:01:20;2.87;;;2.43;;
4601;SDS011;2313;48.552;9.370;2022-12-20T09:03:47;4.67;;;3.07;;
4601;SDS011;2313;48.552;9.370;2022-12-20T09:06:14;7.67;;;2.70;;
4601;SDS011;2313;48.552;9.370;2022-12-20T09:08:44;5.67;;;2.50;;
4601;SDS011;2313;48.552;9.370;2022-12-20T09:11:12;4.70;;;2.60;;
4601;SDS011;2313;48.552;9.370;2022-12-20T09:13:38;5.40;;;2.10;;
4601;SDS011;2313;48.552;9.370;2022-12-20T09:16:05;4.63;;;2.60;;
4601;SDS011;2313;48.552;9.370;2022-12-20T09:18:32;3.17;;;2.00;;
4601;SDS011;2313;48.552;9.370;2022-12-20T09:20:59;5.53;;;2.37;;
4601;SDS011;2313;48.552;9.370;2022-12-20T09:23:29;2.27;;;2.07;;
4601;SDS011;2313;48.552;9.370;2022-12-20T09:26:01;2.87;;;2.40;;
4601;SDS011;2313;48.552;9.370;2022-12-20T09:28:38;4.33;;;2.40;;
4601;SDS011;2313;48.552;9.370;2022-12-20T09:31:05;3.87;;;2.87;;
4601;SDS011;2313;48.552;9.370;2022-12-20T09:33:32;2.10;;;2.00;;
4601;SDS011;2313;48.552;9.370;2022-12-20T09:35:59;3.23;;;1.70;;
4601;SDS011;2313;48.552;9.370;2022-12-20T09:38:25;8.97;;;2.47;;
4601;SDS011;2313;48.552;9.370;2022-12-20T09:40:53;3.47;;;2.50;;
4601;SDS011;2313;48.552;9.370;2022-12-20T09:43:23;1.50;;;1.40;;
4601;SDS011;2313;48.552;9.370;2022-12-20T09:45:51;2.93;;;2.40;;
4601;SDS011;2313;48.552;9.370;2022-12-20T09:48:20;4.03;;;2.03;;
4601;SDS011;2313;48.552;9.370;2022-12-20T09:53:35;1.93;;;1.83;;
4601;SDS011;2313;48.552;9.370;2022-12-20T09:56:04;3.07;;;2.20;;
4601;SDS011;2313;48.552;9.370;2022-12-20T09:58:41;3.17;;;2.00;;
4601;SDS011;2313;48.552;9.370;2022-12-20T10:01:23;2.97;;;1.90;;
4601;SDS011;2313;48.552;9.370;2022-12-20T10:03:51;4.97;;;1.67;;
4601;SDS011;2313;48.552;9.370;2022-12-20T10:09:42;4.20;;;2.07;;
4601;SDS011;2313;48.552;9.370;2022-12-20T10:18:02;2.97;;;2.30;;
4601;SDS011;2313;48.552;9.370;2022-12-20T10:20:45;9.67;;;2.30;;
4601;SDS011;2313;48.552;9.370;2022-12-20T10:23:24;7.60;;;2.50;;
4601;SDS011;2313;48.552;9.370;2022-12-20T10:25:52;5.13;;;2.07;;
4601;SDS011;2313;48.552;9.370;2022-12-20T10:28:22;3.97;;;2.10;;
4601;SDS011;2313;48.552;9.370;2022-12-20T10:30:57;2.93;;;2.07;;
4601;SDS011;2313;48.552;9.370;2022-12-20T10:33:25;2.70;;;2.07;;
4601;SDS011;2313;48.552;9.370;2022-12-20T10:35:52;3.27;;;2.40;;
4601;SDS011;2313;48.552;9.370;2022-12-20T10:38:18;2.47;;;1.90;;
4601;SDS011;2313;48.552;9.370;2022-12-20T10:43:20;4.23;;;2.10;;
4601;SDS011;2313;48.552;9.370;2022-12-20T10:45:57;7.07;;;2.13;;
4601;SDS011;2313;48.552;9.370;2022-12-20T10:48:32;2.37;;;1.60;;
4601;SDS011;2313;48.552;9.370;2022-12-20T10:53:34;2.77;;;1.87;;
4601;SDS011;2313;48.552;9.370;2022-12-20T10:56:10;2.23;;;1.57;;
4601;SDS011;2313;48.552;9.370;2022-12-20T10:58:42;1.67;;;1.40;;
4601;SDS011;2313;48.552;9.370;2022-12-20T11:01:17;2.13;;;1.70;;
4601;SDS011;2313;48.552;9.370;2022-12-20T11:06:21;25.17;;;14.70;;
4601;SDS011;2313;48.552;9.370;2022-12-20T11:08:49;12.17;;;8.60;;
4601;SDS011;2313;48.552;9.370;2022-12-20T11:11:19;12.90;;;7.10;;
4601;SDS011;2313;48.552;9.370;2022-12-20T11:13:47;9.80;;;7.23;;
4601;SDS011;2313;48.552;9.370;2022-12-20T11:16:22;5.47;;;3.90;;
4601;SDS011;2313;48.552;9.370;2022-12-20T11:24:07;26.53;;;15.77;;
4601;SDS011;2313;48.552;9.370;2022-12-20T11:34:29;25.37;;;18.73;;
4601;SDS011;2313;48.552;9.370;2022-12-20T11:42:37;18.40;;;12.17;;
4601;SDS011;2313;48.552;9.370;2022-12-20T11:51:11;12.20;;;9.27;;
4601;SDS011;2313;48.552;9.370;2022-12-20T11:56:49;16.63;;;9.63;;
4601;SDS011;2313;48.552;9.370;2022-12-20T12:01:54;16.60;;;11.43;;
4601;SDS011;2313;48.552;9.370;2022-12-20T12:04:33;45.90;;;26.20;;
4601;SDS011;2313;48.552;9.370;2022-12-20T12:07:14;41.13;;;22.23;;
4601;SDS011;2313;48.552;9.370;2022-12-20T12:09:54;33.03;;;18.37;;
4601;SDS011;2313;48.552;9.370;2022-12-20T12:12:39;29.47;;;16.53;;
4601;SDS011;2313;48.552;9.370;2022-12-20T12:20:32;26.20;;;14.80;;
4601;SDS011;2313;48.552;9.370;2022-12-20T12:25:42;38.03;;;19.43;;
4601;SDS011;2313;48.552;9.370;2022-12-20T12:28:09;32.67;;;17.97;;
4601;SDS011;2313;48.552;9.370;2022-12-20T12:30:40;23.90;;;13.33;;
4601;SDS011;2313;48.552;9.370;2022-12-20T12:33:14;23.10;;;14.00;;
4601;SDS011;2313;48.552;9.370;2022-12-20T12:38:30;18.87;;;12.47;;
4601;SDS011;2313;48.552;9.370;2022-12-20T12:41:30;19.70;;;12.30;;
4601;SDS011;2313;48.552;9.370;2022-12-20T12:46:43;19.50;;;11.70;;
4601;SDS011;2313;48.552;9.370;2022-12-20T12:49:17;15.57;;;10.30;;
4601;SDS011;2313;48.552;9.370;2022-12-20T12:51:49;14.47;;;8.40;;
4601;SDS011;2313;48.552;9.370;2022-12-20T12:56:52;11.40;;;8.97;;
4601;SDS011;2313;48.552;9.370;2022-12-20T13:04:30;17.83;;;11.20;;
4601;SDS011;2313;48.552;9.370;2022-12-20T13:13:00;19.63;;;11.80;;
4601;SDS011;2313;48.552;9.370;2022-12-20T13:20:33;20.90;;;13.40;;
4601;SDS011;2313;48.552;9.370;2022-12-20T13:25:36;12.70;;;9.60;;
4601;SDS011;2313;48.552;9.370;2022-12-20T13:33:45;12.73;;;9.30;;
4601;SDS011;2313;48.552;9.370;2022-12-20T13:41:18;10.50;;;8.23;;
4601;SDS011;2313;48.552;9.370;2022-12-20T13:43:45;12.07;;;8.10;;
4601;SDS011;2313;48.552;9.370;2022-12-20T13:46:14;10.80;;;7.10;;
4601;SDS011;2313;48.552;9.370;2022-12-20T13:48:49;14.87;;;11.33;;
4601;SDS011;2313;48.552;9.370;2022-12-20T13:51:19;18.10;;;11.93;;
4601;SDS011;2313;48.552;9.370;2022-12-20T13:58:52;38.77;;;18.40;;
4601;SDS011;2313;48.552;9.370;2022-12-20T14:01:22;40.30;;;20.33;;
4601;SDS011;2313;48.552;9.370;2022-12-20T14:03:49;28.77;;;13.87;;
4601;SDS011;2313;48.552;9.370;2022-12-20T14:06:17;18.00;;;10.47;;
4601;SDS011;2313;48.552;9.370;2022-12-20T14:08:48;24.50;;;13.07;;
4601;SDS011;2313;48.552;9.370;2022-12-20T14:11:16;27.63;;;14.17;;
4601;SDS011;2313;48.552;9.370;2022-12-20T14:13:51;26.03;;;13.20;;
4601;SDS011;2313;48.552;9.370;2022-12-20T14:16:18;27.67;;;13.90;;
4601;SDS011;2313;48.552;9.370;2022-12-20T14:18:48;28.13;;;14.30;;
4601;SDS011;2313;48.552;9.370;2022-12-20T14:21:15;26.73;;;15.60;;
4601;SDS011;2313;48.552;9.370;2022-12-20T14:23:43;18.30;;;9.80;;
4601;SDS011;2313;48.552;9.370;2022-12-20T14:26:15;6.57;;;3.37;;
4601;SDS011;2313;48.552;9.370;2022-12-20T14:28:51;2.27;;;2.07;;
4601;SDS011;2313;48.552;9.370;2022-12-20T14:31:41;1.50;;;1.40;;
4601;SDS011;2313;48.552;9.370;2022-12-20T14:36:36;12.27;;;8.20;;
4601;SDS011;2313;48.552;9.370;2022-12-20T14:39:22;30.33;;;15.50;;
4601;SDS011;2313;48.552;9.370;2022-12-20T14:42:12;16.20;;;10.20;;
4601;SDS011;2313;48.552;9.370;2022-12-20T14:44:38;22.00;;;13.30;;
4601;SDS011;2313;48.552;9.370;2022-12-20T14:47:11;18.67;;;13.40;;
4601;SDS011;2313;48.552;9.370;2022-12-20T14:49:39;18.77;;;14.20;;
4601;SDS011;2313;48.552;9.370;2022-12-20T14:54:46;15.50;;;11.30;;
4601;SDS011;2313;48.552;9.370;2022-12-20T14:57:30;19.37;;;14.03;;
4601;SDS011;2313;48.552;9.370;2022-12-20T15:00:09;16.20;;;10.77;;
4601;SDS011;2313;48.552;9.370;2022-12-20T15:13:58;17.70;;;10.57;;
4601;SDS011;2313;48.552;9.370;2022-12-20T15:16:22;12.70;;;8.80;;
4601;SDS011;2313;48.552;9.370;2022-12-20T15:21:31;15.83;;;11.10;;
4601;SDS011;2313;48.552;9.370;2022-12-20T15:24:00;13.83;;;9.87;;
4601;SDS011;2313;48.552;9.370;2022-12-20T15:26:31;19.57;;;12.13;;
4601;SDS011;2313;48.552;9.370;2022-12-20T15:28:58;16.93;;;11.47;;
4601;SDS011;2313;48.552;9.370;2022-12-20T15:31:24;17.07;;;10.97;;
4601;SDS011;2313;48.552;9.370;2022-12-20T15:33:50;17.53;;;12.17;;
4601;SDS011;2313;48.552;9.370;2022-12-20T15:36:22;13.90;;;9.10;;
4601;SDS011;2313;48.552;9.370;2022-12-20T15:38:50;13.63;;;9.90;;
4601;SDS011;2313;48.552;9.370;2022-12-20T15:41:27;38.47;;;19.47;;
4601;SDS011;2313;48.552;9.370;2022-12-20T15:43:56;64.70;;;27.00;;
4601;SDS011;2313;48.552;9.370;2022-12-20T15:46:24;49.23;;;23.87;;
4601;SDS011;2313;48.552;9.370;2022-12-20T15:48:50;41.93;;;17.53;;
4601;SDS011;2313;48.552;9.370;2022-12-20T15:51:17;102.63;;;33.27;;
4601;SDS011;2313;48.552;9.370;2022-12-20T15:53:46;37.50;;;16.17;;
4601;SDS011;2313;48.552;9.370;2022-12-20T15:56:15;20.90;;;13.90;;
4601;SDS011;2313;48.552;9.370;2022-12-20T15:58:43;20.80;;;13.80;;
4601;SDS011;2313;48.552;9.370;2022-12-20T16:01:11;18.50;;;11.30;;
4601;SDS011;2313;48.552;9.370;2022-12-20T16:03:39;26.80;;;10.70;;
4601;SDS011;2313;48.552;9.370;2022-12-20T16:06:05;17.20;;;10.20;;
4601;SDS011;2313;48.552;9.370;2022-12-20T16:08:33;10.50;;;7.50;;
4601;SDS011;2313;48.552;9.370;2022-12-20T16:10:59;14.03;;;6.90;;
4601;SDS011;2313;48.552;9.370;2022-12-20T16:13:25;18.07;;;7.27;;
4601;SDS011;2313;48.552;9.370;2022-12-20T16:15:51;9.67;;;4.90;;
4601;SDS011;2313;48.552;9.370;2022-12-20T16:18:17;9.60;;;4.40;;
4601;SDS011;2313;48.552;9.370;2022-12-20T16:20:43;5.40;;;3.80;;
4601;SDS011;2313;48.552;9.370;2022-12-20T16:23:16;9.90;;;5.40;;
4601;SDS011;2313;48.552;9.370;2022-12-20T16:25:43;4.97;;;3.77;;
4601;SDS011;2313;48.552;9.370;2022-12-20T16:28:09;6.17;;;4.00;;
4601;SDS011;2313;48.552;9.370;2022-12-20T16:30:35;12.30;;;5.33;;
4601;SDS011;2313;48.552;9.370;2022-12-20T16:33:01;2.50;;;2.00;;
4601;SDS011;2313;48.552;9.370;2022-12-20T16:35:29;4.73;;;2.30;;
4601;SDS011;2313;48.552;9.370;2022-12-20T16:37:56;3.33;;;1.73;;
4601;SDS011;2313;48.552;9.370;2022-12-20T16:40:26;2.83;;;2.00;;
4601;SDS011;2313;48.552;9.370;2022-12-20T16:42:54;3.47;;;2.47;;
4601;SDS011;2313;48.552;9.370;2022-12-20T16:45:23;9.70;;;5.77;;
4601;SDS011;2313;48.552;9.370;2022-12-20T16:47:51;9.33;;;6.10;;
4601;SDS011;2313;48.552;9.370;2022-12-20T16:50:17;7.67;;;5.47;;
4601;SDS011;2313;48.552;9.370;2022-12-20T16:52:45;9.07;;;3.80;;
4601;SDS011;2313;48.552;9.370;2022-12-20T16:55:13;4.87;;;3.30;;
4601;SDS011;2313;48.552;9.370;2022-12-20T16:57:42;7.07;;;4.00;;
4601;SDS011;2313;48.552;9.370;2022-12-20T17:00:09;11.80;;;5.40;;
4601;SDS011;2313;48.552;9.370;2022-12-20T17:02:41;5.10;;;2.90;;
4601;SDS011;2313;48.552;9.370;2022-12-20T17:05:09;5.97;;;4.00;;
4601;SDS011;2313;48.552;9.370;2022-12-20T17:08:01;4.60;;;3.43;;
4601;SDS011;2313;48.552;9.370;2022-12-20T17:10:27;5.67;;;2.67;;
4601;SDS011;2313;48.552;9.370;2022-12-20T17:12:54;4.00;;;2.80;;
4601;SDS011;2313;48.552;9.370;2022-12-20T17:15:22;3.23;;;2.10;;
4601;SDS011;2313;48.552;9.370;2022-12-20T17:17:53;6.03;;;3.13;;
4601;SDS011;2313;48.552;9.370;2022-12-20T17:20:20;4.50;;;3.90;;
4601;SDS011;2313;48.552;9.370;2022-12-20T17:22:47;7.80;;;5.43;;